createdAt,value
2023-02-11T00:00:39.919Z,40.63
2023-02-11T00:03:09.901Z,41.38
2023-02-11T00:05:49.037Z,42.65
2023-02-11T00:08:23.860Z,39.70
2023-02-11T00:11:11.300Z,38.17
2023-02-11T00:14:07.288Z,39.03
2023-02-11T00:16:53.987Z,37.03
2023-02-11T00:19:26.961Z,44.88
2023-02-11T00:21:57.227Z,37.22
2023-02-11T00:24:30.102Z,35.80
2023-02-11T00:27:04.646Z,44.83
2023-02-11T00:29:41.724Z,40.53
2023-02-11T00:32:11.516Z,41.75
2023-02-11T00:34:47.713Z,39.47
2023-02-11T00:37:26.749Z,40.58
2023-02-11T00:39:56.655Z,38.92
2023-02-11T00:42:25.629Z,41.50
2023-02-11T00:44:53.182Z,40.35
2023-02-11T00:47:19.840Z,39.72
2023-02-11T00:49:46.503Z,49.85
2023-02-11T00:52:27.905Z,41.17
2023-02-11T00:54:54.525Z,39.93
2023-02-11T00:57:22.910Z,44.78
2023-02-11T00:59:49.670Z,48.80
2023-02-11T01:02:24.334Z,40.83
2023-02-11T01:04:56.735Z,36.97
2023-02-11T01:07:33.705Z,39.20
2023-02-11T01:10:26.862Z,34.92
2023-02-11T01:12:53.478Z,41.03
2023-02-11T01:15:20.431Z,39.72
2023-02-11T01:17:50.070Z,37.42
2023-02-11T01:20:20.384Z,37.47
2023-02-11T01:22:46.998Z,34.88
2023-02-11T01:25:26.957Z,31.27
2023-02-11T01:27:53.661Z,39.90
2023-02-11T01:30:20.256Z,36.25
2023-02-11T01:33:06.499Z,32.00
2023-02-11T01:35:38.756Z,34.50
2023-02-11T01:38:07.186Z,36.83
2023-02-11T01:40:34.215Z,38.13
2023-02-11T01:43:11.116Z,38.78
2023-02-11T01:45:51.460Z,33.88
2023-02-11T01:48:25.877Z,39.92
2023-02-11T01:50:59.545Z,48.97
2023-02-11T01:53:26.608Z,38.88
2023-02-11T01:55:54.200Z,35.50
2023-02-11T01:58:21.214Z,40.67
2023-02-11T02:00:48.307Z,43.35
2023-02-11T02:03:22.570Z,39.08
2023-02-11T02:06:00.586Z,35.65
2023-02-11T02:08:38.134Z,35.25
2023-02-11T02:11:05.647Z,38.28
2023-02-11T02:13:37.129Z,33.67
2023-02-11T02:16:10.188Z,35.40
2023-02-11T02:19:03.949Z,31.83
2023-02-11T02:21:31.007Z,32.08
2023-02-11T02:24:37.401Z,30.65
2023-02-11T02:27:50.737Z,33.17
2023-02-11T02:30:49.130Z,31.40
2023-02-11T02:33:30.077Z,35.78
2023-02-11T02:36:25.883Z,36.92
2023-02-11T02:39:13.634Z,34.17
2023-02-11T02:41:50.480Z,34.08
2023-02-11T02:44:31.318Z,30.75
2023-02-11T02:46:58.404Z,33.10
2023-02-11T02:49:25.361Z,33.42
2023-02-11T02:52:30.998Z,31.08
2023-02-11T02:55:23.080Z,33.53
2023-02-11T02:58:10.418Z,32.83
2023-02-11T03:01:01.805Z,35.88
2023-02-11T03:03:43.505Z,35.92
2023-02-11T03:06:36.406Z,31.63
2023-02-11T03:09:14.642Z,34.28
2023-02-11T03:11:41.461Z,29.67
2023-02-11T03:14:24.619Z,32.42
2023-02-11T03:16:57.768Z,31.77
2023-02-11T03:19:35.292Z,33.53
2023-02-11T03:22:07.796Z,36.38
2023-02-11T03:24:52.041Z,32.42
2023-02-11T03:27:31.821Z,31.52
2023-02-11T03:30:13.659Z,33.40
2023-02-11T03:33:05.030Z,34.63
2023-02-11T03:36:04.852Z,34.45
2023-02-11T03:38:36.527Z,37.10
2023-02-11T03:41:08.057Z,30.98
2023-02-11T03:44:01.736Z,36.25
2023-02-11T03:46:40.702Z,32.40
2023-02-11T03:49:20.787Z,35.42
2023-02-11T03:51:53.024Z,32.67
2023-02-11T03:54:27.147Z,29.98
2023-02-11T03:56:58.081Z,33.83
2023-02-11T03:59:30.167Z,31.52
2023-02-11T04:04:35.688Z,31.38
2023-02-11T04:07:02.340Z,34.80
2023-02-11T04:09:28.949Z,31.35
2023-02-11T04:12:04.162Z,33.25
2023-02-11T04:14:32.995Z,35.47
2023-02-11T04:16:59.646Z,30.48
2023-02-11T04:19:26.520Z,36.28
2023-02-11T04:21:53.198Z,32.78
2023-02-11T04:24:28.608Z,34.17
2023-02-11T04:26:59.246Z,32.10
2023-02-11T04:29:28.821Z,33.90
2023-02-11T04:31:58.456Z,31.50
2023-02-11T04:34:27.734Z,29.42
2023-02-11T04:36:57.633Z,30.77
2023-02-11T04:39:24.327Z,31.60
2023-02-11T04:41:56.949Z,30.67
2023-02-11T04:44:33.209Z,30.75
2023-02-11T04:47:04.005Z,29.35
2023-02-11T04:49:39.890Z,28.70
2023-02-11T04:52:12.764Z,26.83
2023-02-11T04:57:10.189Z,32.65
2023-02-11T04:59:36.945Z,29.98
2023-02-11T05:02:05.407Z,28.95
2023-02-11T05:04:32.197Z,32.53
2023-02-11T05:07:06.964Z,32.78
2023-02-11T05:09:34.484Z,28.20
2023-02-11T05:12:01.206Z,31.25
2023-02-11T05:14:32.374Z,29.60
2023-02-11T05:17:10.428Z,31.97
2023-02-11T05:19:39.335Z,33.42
2023-02-11T05:22:06.031Z,31.73
2023-02-11T05:24:38.944Z,27.75
2023-02-11T05:27:05.607Z,29.38
2023-02-11T05:29:39.724Z,29.25
2023-02-11T05:32:06.412Z,28.95
2023-02-11T05:34:36.261Z,28.63
2023-02-11T05:37:06.133Z,29.05
2023-02-11T05:39:32.740Z,29.30
2023-02-11T05:41:59.369Z,28.95
2023-02-11T05:44:27.284Z,29.50
2023-02-11T05:46:53.922Z,28.75
2023-02-11T05:49:20.538Z,31.08
2023-02-11T05:51:47.473Z,25.90
2023-02-11T05:54:16.178Z,32.50
2023-02-11T05:56:44.790Z,32.83
2023-02-11T05:59:15.516Z,27.33
2023-02-11T06:01:42.134Z,36.25
2023-02-11T06:04:09.121Z,30.27
2023-02-11T06:06:35.797Z,29.33
2023-02-11T06:09:02.673Z,28.02
2023-02-11T06:11:31.904Z,32.38
2023-02-11T06:13:58.469Z,27.50
2023-02-11T06:16:31.604Z,30.88
2023-02-11T06:19:02.497Z,32.22
2023-02-11T06:21:42.723Z,34.25
2023-02-11T06:24:44.325Z,30.13
2023-02-11T06:27:07.534Z,32.72
2023-02-11T06:29:34.175Z,30.13
2023-02-11T06:32:04.580Z,28.52
2023-02-11T06:34:34.162Z,27.17
2023-02-11T06:37:07.280Z,30.38
2023-02-11T06:39:39.185Z,30.58
2023-02-11T06:42:08.679Z,28.95
2023-02-11T06:44:35.325Z,28.73
2023-02-11T06:47:12.099Z,33.72
2023-02-11T06:49:38.698Z,30.10
2023-02-11T06:52:05.370Z,38.13
2023-02-11T06:54:34.296Z,31.98
2023-02-11T06:57:01.050Z,30.67
2023-02-11T06:59:33.152Z,29.77
2023-02-11T07:04:28.125Z,29.55
2023-02-11T07:06:57.972Z,24.38
2023-02-11T07:09:24.719Z,35.22
2023-02-11T07:11:57.100Z,30.00
2023-02-11T07:14:23.850Z,37.03
2023-02-11T07:16:57.863Z,34.58
2023-02-11T07:19:24.594Z,31.17
2023-02-11T07:21:51.264Z,28.83
2023-02-11T07:24:20.190Z,29.80
2023-02-11T07:26:47.860Z,30.92
2023-02-11T07:29:18.396Z,27.40
2023-02-11T07:31:45.401Z,26.80
2023-02-11T07:34:12.111Z,26.10
2023-02-11T07:36:38.720Z,29.42
2023-02-11T07:39:05.407Z,23.88
2023-02-11T07:41:44.953Z,26.35
2023-02-11T07:44:17.905Z,27.42
2023-02-11T07:46:49.020Z,30.90
2023-02-11T07:49:25.065Z,29.20
2023-02-11T07:51:55.379Z,30.20
2023-02-11T07:54:22.091Z,28.90
2023-02-11T07:56:54.448Z,28.13
2023-02-11T07:59:21.294Z,27.02
2023-02-11T08:01:48.164Z,27.42
2023-02-11T08:04:14.889Z,28.95
2023-02-11T08:06:42.883Z,28.35
2023-02-11T08:09:23.926Z,26.20
2023-02-11T08:11:50.624Z,27.23
2023-02-11T08:14:24.823Z,26.50
2023-02-11T08:19:35.336Z,26.25
2023-02-11T08:22:02.125Z,26.30
2023-02-11T08:24:30.046Z,25.40
2023-02-11T08:26:56.715Z,26.58
2023-02-11T08:29:23.491Z,23.42
2023-02-11T08:31:50.330Z,25.05
2023-02-11T08:34:17.670Z,21.35
2023-02-11T08:36:49.398Z,28.17
2023-02-11T08:39:22.524Z,24.05
2023-02-11T08:41:57.010Z,25.42
2023-02-11T08:44:25.086Z,23.00
2023-02-11T08:52:28.108Z,29.25
2023-02-11T08:54:58.293Z,24.05
2023-02-11T08:57:34.922Z,26.15
2023-02-11T09:00:13.869Z,31.60
2023-02-11T09:02:47.076Z,23.25
2023-02-11T09:05:14.288Z,31.52
2023-02-11T09:07:50.171Z,23.83
2023-02-11T09:10:16.959Z,31.92
2023-02-11T09:12:46.600Z,30.63
2023-02-11T09:15:23.383Z,32.15
2023-02-11T09:17:50.057Z,29.58
2023-02-11T09:20:18.701Z,26.50
2023-02-11T09:22:48.658Z,34.22
2023-02-11T09:25:22.943Z,32.10
2023-02-11T09:27:58.243Z,31.05
2023-02-11T09:30:27.763Z,35.70
2023-02-11T09:33:22.074Z,33.47
2023-02-11T09:35:51.598Z,30.67
2023-02-11T09:38:23.167Z,32.28
2023-02-11T09:40:50.154Z,32.95
2023-02-11T09:43:35.875Z,36.88
2023-02-11T09:48:45.730Z,32.85
2023-02-11T09:51:35.193Z,30.85
2023-02-11T09:54:23.925Z,32.42
2023-02-11T09:56:53.031Z,40.10
2023-02-11T09:59:24.975Z,33.53
2023-02-11T10:01:59.113Z,48.97
2023-02-11T10:04:47.638Z,26.17
2023-02-11T10:07:41.936Z,31.48
2023-02-11T10:10:27.514Z,33.42
2023-02-11T10:12:56.716Z,33.60
2023-02-11T10:15:55.502Z,31.83
2023-02-11T10:18:42.351Z,26.88
2023-02-11T10:21:27.294Z,34.58
2023-02-11T10:23:59.285Z,32.85
2023-02-11T10:26:30.192Z,33.50
2023-02-11T10:29:02.003Z,32.10
2023-02-11T10:31:41.481Z,35.03
2023-02-11T10:34:13.199Z,34.28
2023-02-11T10:36:47.366Z,28.95
2023-02-11T10:39:26.144Z,29.05
2023-02-11T10:41:58.704Z,30.63
2023-02-11T10:44:37.671Z,30.02
2023-02-11T10:47:27.916Z,26.55
2023-02-11T10:50:00.949Z,29.23
2023-02-11T10:52:43.680Z,31.77
2023-02-11T10:55:14.340Z,32.70
2023-02-11T10:57:55.662Z,32.00
2023-02-11T11:00:38.904Z,35.67
2023-02-11T11:03:21.315Z,39.83
2023-02-11T11:06:15.916Z,32.55
2023-02-11T11:08:52.642Z,30.00
2023-02-11T11:11:35.620Z,29.88
2023-02-11T11:14:02.543Z,27.38
2023-02-11T11:16:30.827Z,28.35
2023-02-11T11:19:09.340Z,27.95
2023-02-11T11:21:53.903Z,27.88
2023-02-11T11:24:22.297Z,28.75
2023-02-11T11:26:52.402Z,33.65
2023-02-11T11:29:42.665Z,37.50
2023-02-11T11:32:15.014Z,34.10
2023-02-11T11:34:43.905Z,31.08
2023-02-11T11:37:20.709Z,33.78
2023-02-11T11:40:19.338Z,30.38
2023-02-11T11:42:46.066Z,29.92
2023-02-11T11:45:15.782Z,31.42
2023-02-11T11:48:13.434Z,30.85
2023-02-11T11:50:44.281Z,29.17
2023-02-11T11:53:21.250Z,29.27
2023-02-11T11:56:03.584Z,31.83
2023-02-11T12:01:25.135Z,31.35
2023-02-11T12:04:30.345Z,34.70
2023-02-11T12:07:40.195Z,32.08
2023-02-11T12:10:40.120Z,31.48
2023-02-11T12:13:29.945Z,28.38
2023-02-11T12:16:31.941Z,30.63
2023-02-11T12:19:26.907Z,29.90
2023-02-11T12:22:10.541Z,29.73
2023-02-11T12:24:37.116Z,31.42
2023-02-11T12:27:27.089Z,26.77
2023-02-11T12:30:15.109Z,27.45
2023-02-11T12:32:50.754Z,25.88
2023-02-11T12:35:26.815Z,27.63
2023-02-11T12:38:05.312Z,28.70
2023-02-11T12:41:02.130Z,30.00
2023-02-11T12:43:40.497Z,27.27
2023-02-11T12:46:47.065Z,26.88
2023-02-11T12:49:31.365Z,30.70
2023-02-11T12:52:18.960Z,27.95
2023-02-11T12:55:04.407Z,27.90
2023-02-11T12:57:40.625Z,32.00
2023-02-11T13:00:13.749Z,26.40
2023-02-11T13:02:48.606Z,29.35
2023-02-11T13:05:40.379Z,29.52
2023-02-11T13:08:35.560Z,26.08
2023-02-11T13:11:14.476Z,26.95
2023-02-11T13:14:09.365Z,25.13
2023-02-11T13:16:44.435Z,27.40
2023-02-11T13:19:14.233Z,28.40
2023-02-11T13:22:29.533Z,24.90
2023-02-11T13:25:06.836Z,28.30
2023-02-11T13:28:06.217Z,27.50
2023-02-11T13:30:45.567Z,26.15
2023-02-11T13:33:32.266Z,29.02
2023-02-11T13:36:04.352Z,28.10
2023-02-11T13:38:38.438Z,30.63
2023-02-11T13:41:29.988Z,30.73
2023-02-11T13:44:02.475Z,25.43
2023-02-11T13:46:47.923Z,32.95
2023-02-11T13:49:29.773Z,29.30
2023-02-11T13:51:57.321Z,28.02
2023-02-11T13:54:29.371Z,24.80
2023-02-11T13:57:21.191Z,27.35
2023-02-11T13:59:49.395Z,25.23
2023-02-11T14:02:47.659Z,26.42
2023-02-11T14:05:20.486Z,29.33
2023-02-11T14:08:12.205Z,23.55
2023-02-11T14:10:45.717Z,30.65
2023-02-11T14:13:32.570Z,29.73
2023-02-11T14:16:17.087Z,35.33
2023-02-11T14:18:58.182Z,26.80
2023-02-11T14:21:28.056Z,31.38
2023-02-11T14:24:22.184Z,31.83
2023-02-11T14:27:04.580Z,31.42
2023-02-11T14:29:41.034Z,34.30
2023-02-11T14:32:45.472Z,28.65
2023-02-11T14:35:41.234Z,27.35
2023-02-11T14:38:32.579Z,27.85
2023-02-11T14:41:31.657Z,31.40
2023-02-11T14:44:19.472Z,32.88
2023-02-11T14:47:02.715Z,24.85
2023-02-11T14:49:35.772Z,24.15
2023-02-11T14:55:09.358Z,26.15
2023-02-11T14:57:43.183Z,29.15
2023-02-11T15:00:23.452Z,35.13
2023-02-11T15:02:50.224Z,24.83
2023-02-11T15:05:23.693Z,26.05
2023-02-11T15:10:44.818Z,26.20
2023-02-11T15:13:30.773Z,25.80
2023-02-11T15:16:09.459Z,33.42
2023-02-11T15:19:04.875Z,32.45
2023-02-11T15:21:37.221Z,25.58
2023-02-11T15:24:30.969Z,24.05
2023-02-11T15:27:24.051Z,24.73
2023-02-11T15:29:56.191Z,30.48
2023-02-11T15:32:29.007Z,32.63
2023-02-11T15:35:00.702Z,30.92
2023-02-11T15:37:30.706Z,29.83
2023-02-11T15:40:16.184Z,38.58
2023-02-11T15:43:00.569Z,35.42
2023-02-11T15:46:06.189Z,27.55
2023-02-11T15:48:58.974Z,33.25
2023-02-11T15:51:36.622Z,33.10
2023-02-11T15:54:23.927Z,32.00
2023-02-11T15:57:04.342Z,35.88
2023-02-11T15:59:45.785Z,32.25
2023-02-11T16:02:39.583Z,29.45
2023-02-11T16:05:32.265Z,30.70
2023-02-11T16:08:23.053Z,31.55
2023-02-11T16:11:03.933Z,35.17
2023-02-11T16:13:45.112Z,30.88
2023-02-11T16:16:27.959Z,33.97
2023-02-11T16:19:05.986Z,28.05
2023-02-11T16:21:41.685Z,33.90
2023-02-11T16:24:16.162Z,31.90
2023-02-11T16:26:55.856Z,36.67
2023-02-11T16:29:31.709Z,33.60
2023-02-11T16:32:32.338Z,44.28
2023-02-11T16:35:14.988Z,44.58
2023-02-11T16:37:41.670Z,47.83
2023-02-11T16:40:09.725Z,42.38
2023-02-11T16:42:36.450Z,43.78
2023-02-11T16:45:03.532Z,38.92
2023-02-11T16:47:37.805Z,45.17
2023-02-11T16:50:09.763Z,36.00
2023-02-11T16:52:40.346Z,39.65
2023-02-11T16:55:07.151Z,34.88
2023-02-11T16:57:36.680Z,39.72
2023-02-11T17:00:06.936Z,39.10
2023-02-11T17:02:38.608Z,43.90
2023-02-11T17:05:08.779Z,39.03
2023-02-11T17:07:35.472Z,39.60
2023-02-11T17:12:33.760Z,42.47
2023-02-11T17:15:08.216Z,39.65
2023-02-11T17:17:41.538Z,48.40
2023-02-11T17:20:11.039Z,42.70
2023-02-11T17:22:40.126Z,46.78
2023-02-11T17:25:07.352Z,45.38
2023-02-11T17:27:34.094Z,41.78
2023-02-11T17:30:08.311Z,42.63
2023-02-11T17:32:37.866Z,43.13
2023-02-11T17:35:05.554Z,46.95
2023-02-11T17:37:38.384Z,47.70
2023-02-11T17:40:05.941Z,54.15
2023-02-11T17:42:34.999Z,51.60
2023-02-11T17:45:01.619Z,48.42
2023-02-11T17:47:36.793Z,48.22
2023-02-11T17:50:06.696Z,49.88
2023-02-11T17:52:35.049Z,47.03
2023-02-11T17:55:06.553Z,53.97
2023-02-11T17:57:36.600Z,43.95
2023-02-11T18:00:05.797Z,45.38
2023-02-11T18:02:43.248Z,38.10
2023-02-11T18:05:10.829Z,41.67
2023-02-11T18:07:37.680Z,41.28
2023-02-11T18:10:14.105Z,43.40
2023-02-11T18:12:40.771Z,41.97
2023-02-11T18:15:07.630Z,43.53
2023-02-11T18:17:34.354Z,49.55
2023-02-11T18:20:01.071Z,41.80
2023-02-11T18:22:35.938Z,39.83
2023-02-11T18:25:03.724Z,46.95
2023-02-11T18:27:30.790Z,49.40
2023-02-11T18:30:00.928Z,48.20
2023-02-11T18:32:27.789Z,44.92
2023-02-11T18:34:56.874Z,40.08
2023-02-11T18:37:46.588Z,39.90
2023-02-11T18:40:17.778Z,44.70
2023-02-11T18:42:50.468Z,49.63
2023-02-11T18:45:19.901Z,44.05
2023-02-11T18:47:46.569Z,46.72
2023-02-11T18:50:17.487Z,45.83
2023-02-11T18:52:49.984Z,46.20
2023-02-11T18:55:17.672Z,48.45
2023-02-11T18:57:44.391Z,53.13
2023-02-11T19:00:22.512Z,40.22
2023-02-11T19:03:00.092Z,55.35
2023-02-11T19:05:26.966Z,65.07
2023-02-11T19:07:58.579Z,57.47
2023-02-11T19:10:25.756Z,46.25
2023-02-11T19:12:56.465Z,40.53
2023-02-11T19:15:23.350Z,52.63
2023-02-11T19:17:49.971Z,47.40
2023-02-11T19:20:20.278Z,55.00
2023-02-11T19:22:52.797Z,45.88
2023-02-11T19:25:22.259Z,43.30
2023-02-11T19:27:48.888Z,45.92
2023-02-11T19:30:15.554Z,51.83
2023-02-11T19:32:42.190Z,53.83
2023-02-11T19:35:10.861Z,54.95
2023-02-11T19:37:40.634Z,51.95
2023-02-11T19:40:11.006Z,51.67
2023-02-11T19:42:39.400Z,50.78
2023-02-11T19:45:08.815Z,55.50
2023-02-11T19:47:35.822Z,50.83
2023-02-11T19:50:02.782Z,48.47
2023-02-11T19:52:29.449Z,52.28
2023-02-11T19:54:59.197Z,53.58
2023-02-11T19:57:28.730Z,46.65
2023-02-11T19:59:55.409Z,47.47
2023-02-11T20:02:25.240Z,47.63
2023-02-11T20:04:51.876Z,48.80
2023-02-11T20:07:18.516Z,52.08
2023-02-11T20:09:45.337Z,46.92
2023-02-11T20:12:12.136Z,40.53
2023-02-11T20:14:47.748Z,46.58
2023-02-11T20:17:17.682Z,50.30
2023-02-11T20:19:44.291Z,40.78
2023-02-11T20:22:10.954Z,50.78
2023-02-11T20:24:37.609Z,55.63
2023-02-11T20:27:04.353Z,45.38
2023-02-11T20:29:30.981Z,45.00
2023-02-11T20:31:57.826Z,42.15
2023-02-11T20:34:24.613Z,42.60
2023-02-11T20:36:53.119Z,48.08
2023-02-11T20:39:22.062Z,44.63
2023-02-11T20:41:50.108Z,49.50
2023-02-11T20:44:20.667Z,45.05
2023-02-11T20:46:47.937Z,42.95
2023-02-11T20:49:18.940Z,44.03
2023-02-11T20:51:53.732Z,46.05
2023-02-11T20:54:36.729Z,45.60
2023-02-11T20:57:03.598Z,41.63
2023-02-11T20:59:31.070Z,39.17
2023-02-11T21:01:58.191Z,40.05
2023-02-11T21:04:30.787Z,48.03
2023-02-11T21:07:00.216Z,44.42
2023-02-11T21:09:30.052Z,42.25
2023-02-11T21:12:05.248Z,39.33
2023-02-11T21:14:40.369Z,40.72
2023-02-11T21:17:07.432Z,35.60
2023-02-11T21:19:34.112Z,43.17
2023-02-11T21:22:01.289Z,37.65
2023-02-11T21:24:31.844Z,41.92
2023-02-11T21:26:59.630Z,36.85
2023-02-11T21:29:29.929Z,37.17
2023-02-11T21:32:02.167Z,38.97
2023-02-11T21:34:36.858Z,40.97
2023-02-11T21:37:07.622Z,39.83
2023-02-11T21:39:34.329Z,53.45
2023-02-11T21:42:30.061Z,43.17
2023-02-11T21:44:57.488Z,41.75
2023-02-11T21:47:31.595Z,41.60
2023-02-11T21:50:01.249Z,45.78
2023-02-11T21:52:31.344Z,40.53
2023-02-11T21:54:57.977Z,49.03
2023-02-11T21:57:25.027Z,48.65
2023-02-11T21:59:54.857Z,48.38
2023-02-11T22:02:23.527Z,47.10
2023-02-11T22:04:52.840Z,48.35
2023-02-11T22:07:25.886Z,47.38
2023-02-11T22:10:00.724Z,43.22
2023-02-11T22:12:36.828Z,41.22
2023-02-11T22:15:03.664Z,47.67
2023-02-11T22:17:30.639Z,46.92
2023-02-11T22:20:13.744Z,47.00
2023-02-11T22:22:53.217Z,45.72
2023-02-11T22:25:29.622Z,42.47
2023-02-11T22:27:57.257Z,40.72
2023-02-11T22:30:25.264Z,41.25
2023-02-11T22:32:51.969Z,45.17
2023-02-11T22:35:18.656Z,40.33
2023-02-11T22:37:45.480Z,42.08
2023-02-11T22:40:12.973Z,49.88
2023-02-11T22:42:48.155Z,36.40
2023-02-11T22:45:14.859Z,42.58
2023-02-11T22:47:47.725Z,41.72
2023-02-11T22:50:14.444Z,47.90
2023-02-11T22:52:44.514Z,45.20
2023-02-11T22:55:22.094Z,38.55
2023-02-11T22:57:53.253Z,48.63
2023-02-11T23:00:30.903Z,32.90
2023-02-11T23:03:00.237Z,44.22
2023-02-11T23:05:29.748Z,42.63
2023-02-11T23:07:59.615Z,44.22
2023-02-11T23:10:31.907Z,42.13
2023-02-11T23:13:03.688Z,40.28
2023-02-11T23:15:33.927Z,39.05
2023-02-11T23:18:00.807Z,38.65
2023-02-11T23:20:27.615Z,31.30
2023-02-11T23:23:11.690Z,39.50
2023-02-11T23:25:47.509Z,35.47
2023-02-11T23:28:16.936Z,36.85
2023-02-11T23:30:54.903Z,37.35
2023-02-11T23:33:22.218Z,37.03
2023-02-11T23:35:52.194Z,36.20
2023-02-11T23:38:34.888Z,40.42
2023-02-11T23:41:07.748Z,36.00
2023-02-11T23:43:40.195Z,38.10
2023-02-11T23:46:10.117Z,46.88
2023-02-11T23:48:45.852Z,35.92
2023-02-11T23:51:12.833Z,32.85
2023-02-11T23:53:45.367Z,35.10
2023-02-11T23:56:22.885Z,32.03
2023-02-11T23:58:56.312Z,31.80
